B738 Smartwings wypadł z pasa podczas lądowania w Pardubicach (film)

B738 Smartwings po wypadnięciu z pasa w Pardubicach

1 sierpnia, B738 należący do linii Smartwings (znaki rejestracyjne N624XA), który wykonywał lot QS-1903 z Heraklionu do Pardubic ze 120 osobami na pokładzie, podczas lądowania nie zdołał wyhamować przed końcem pasa i zatrzymał się na nieutwardzonej nawierzchni ok. 20 m dalej.

W zdarzeniu nikomu nic się nie stało, a sam statek powietrzny został w nieznacznym stopniu uszkodzony. Droga startowa 27 na lotnisku w Pardubicach posiada długość 2500 m. Obecnie prowadzone jest dochodzenie mające wyjaśnić przyczyny zdarzenia.

Metar-y:
LKPD 011800Z 05003KT 9999 FEW050CB SCT110 29/18 Q1017 NOSIG=
LKPD 011700Z 05002KT 9999 FEW050CB SCT100 30/19 Q1017 NOSIG=
LKPD 011600Z VRB02KT 9999 VCTS FEW040CB SCT080 28/20 Q1017 NOSIG=

LKPD 011503Z 24003KT 9999 TS FEW046CB SCT120 29/19 Q1017 RMK BLU=
LKPD 011500Z 23004KT 9999 FEW046CB SCT120 28/19 Q1017 RETS NOSIG=
LKPD 011400Z 21005KT 9999 TS FEW042CB SCT050 28/19 Q1017 NOSIG=
LKPD 011349Z 20005KT 9999 TS FEW041CB SCT048 28/19 Q1017 RMK BLU=
LKPD 011340Z 18006KT 9999 VCTS FEW046CB SCT100 27/20 Q1017 RMK BLU=
LKPD 011307Z 13010KT 9999 -TSRA FEW044CB SCT050 29/20 Q1017 RMK BLU=
LKPD 011300Z 11013KT 9999 VCTS -SHRA FEW044CB SCT050 31/17 Q1017 NOSIG=
 

Źródło: avherald
comments powered by Disqus